Time;durP1;ratioP1;P1;durP2;ratioP2;P2;SDS_P1;SDS_P2;PMS_P1;PMS_P2;Temp;Humidity;BMP_temperature;BMP_pressure;BME280_temperature;BME280_humidity;BME280_pressure;Samples;Min_cycle;Max_cycle;Signal;HPM_P1;HPM_P2
2022/10/22 00:01:02;;;;;;;12.10;9.27;;;13.90;99.90;;;;;;5009790;28;20165;-69
2022/10/22 00:03:27;;;;;;;10.47;8.73;;;13.80;99.90;;;;;;5003428;28;20258;-68
2022/10/22 00:05:53;;;;;;;12.83;9.90;;;13.80;99.90;;;;;;5002233;28;20454;-68
2022/10/22 00:08:18;;;;;;;12.67;9.60;;;13.80;99.90;;;;;;5011457;28;20192;-69
2022/10/22 00:10:44;;;;;;;11.77;9.67;;;13.80;99.90;;;;;;4999337;28;20181;-69
2022/10/22 00:13:10;;;;;;;16.10;10.30;;;13.80;99.90;;;;;;5008650;28;20200;-68
2022/10/22 00:15:35;;;;;;;15.57;8.83;;;13.80;99.90;;;;;;5004777;28;20198;-68
2022/10/22 00:18:01;;;;;;;13.70;9.93;;;13.80;99.90;;;;;;5001101;28;20671;-68
2022/10/22 00:20:26;;;;;;;9.60;8.60;;;13.90;99.90;;;;;;5010822;28;20176;-69
2022/10/22 00:22:52;;;;;;;12.27;9.53;;;13.90;99.90;;;;;;4998302;28;20170;-68
2022/10/22 00:25:17;;;;;;;13.70;10.10;;;13.90;99.90;;;;;;5006588;28;20643;-69
2022/10/22 00:27:43;;;;;;;11.97;9.63;;;13.90;99.90;;;;;;5003689;28;20208;-68
2022/10/22 00:30:09;;;;;;;12.23;9.20;;;13.90;99.90;;;;;;5013902;28;20263;-69
2022/10/22 00:32:35;;;;;;;11.73;9.50;;;14.00;99.90;;;;;;5011915;28;20215;-67
2022/10/22 00:35:00;;;;;;;11.70;8.73;;;14.00;99.90;;;;;;4998770;28;20506;-69
2022/10/22 00:37:26;;;;;;;12.50;8.97;;;14.00;99.90;;;;;;5005000;28;20184;-67
2022/10/22 00:39:51;;;;;;;12.27;9.20;;;14.00;99.90;;;;;;5005720;28;20259;-67
2022/10/22 00:42:19;;;;;;;10.60;8.70;;;14.00;99.90;;;;;;4998251;28;20173;-67
2022/10/22 00:45:06;;;;;;;11.30;8.57;;;14.00;99.90;;;;;;5009971;28;20169;-67
2022/10/22 00:48:04;;;;;;;17.03;10.17;;;14.00;99.90;;;;;;5002725;28;20901;-67
2022/10/22 00:50:36;;;;;;;12.13;9.30;;;14.00;99.90;;;;;;4993903;28;20412;-67
2022/10/22 00:53:05;;;;;;;14.27;9.43;;;14.00;99.90;;;;;;5023458;28;20448;-68
2022/10/22 00:55:32;;;;;;;13.90;9.70;;;14.00;99.90;;;;;;5002209;28;20422;-68
2022/10/22 00:57:58;;;;;;;11.33;8.57;;;14.00;99.90;;;;;;5000695;28;20516;-67
2022/10/22 01:00:25;;;;;;;11.90;8.63;;;14.00;99.90;;;;;;5010253;28;20422;-67
2022/10/22 01:02:52;;;;;;;12.70;11.27;;;14.00;99.90;;;;;;4997658;28;20411;-68
2022/10/22 01:05:17;;;;;;;10.83;7.70;;;14.00;99.90;;;;;;5006204;28;20778;-68
2022/10/22 01:07:48;;;;;;;11.73;9.53;;;14.00;99.90;;;;;;5004792;28;20825;-68
2022/10/22 01:10:19;;;;;;;11.73;9.00;;;14.00;99.90;;;;;;4998475;28;20540;-68
2022/10/22 01:13:24;;;;;;;14.37;10.60;;;13.90;99.90;;;;;;5009008;28;20408;-68
2022/10/22 01:16:01;;;;;;;12.43;9.60;;;13.90;99.90;;;;;;5005975;28;20399;-67
2022/10/22 01:18:29;;;;;;;19.27;10.03;;;13.90;99.90;;;;;;4996995;28;20420;-68
2022/10/22 01:21:15;;;;;;;13.23;9.63;;;13.90;99.90;;;;;;5007272;28;20419;-68
2022/10/22 01:24:17;;;;;;;15.90;10.10;;;14.00;99.90;;;;;;4972267;28;20420;-68
2022/10/22 01:26:43;;;;;;;13.83;9.63;;;14.00;99.90;;;;;;4981385;28;20506;-68
2022/10/22 01:29:14;;;;;;;18.50;10.93;;;14.00;99.90;;;;;;5023446;23;20595;-70
2022/10/22 01:31:49;;;;;;;12.87;11.03;;;14.00;99.90;;;;;;5006444;28;20197;-69
2022/10/22 01:34:17;;;;;;;16.17;11.23;;;14.00;99.90;;;;;;4997334;28;20545;-68
2022/10/22 01:36:44;;;;;;;13.83;9.77;;;13.90;99.90;;;;;;4996578;28;20519;-69
2022/10/22 01:39:12;;;;;;;14.67;10.80;;;13.90;99.90;;;;;;4998673;28;20982;-69
2022/10/22 01:41:41;;;;;;;16.53;10.83;;;13.90;99.90;;;;;;5002562;28;20400;-70
2022/10/22 01:44:29;;;;;;;14.20;11.00;;;13.90;99.90;;;;;;5006767;28;20807;-70
2022/10/22 01:47:10;;;;;;;16.40;10.13;;;13.90;99.90;;;;;;4994946;28;20439;-70
2022/10/22 01:49:59;;;;;;;13.47;9.80;;;13.90;99.90;;;;;;5002801;28;20455;-69
2022/10/22 01:52:41;;;;;;;21.07;11.50;;;13.90;99.90;;;;;;5007498;28;20420;-69
2022/10/22 01:55:39;;;;;;;12.10;9.60;;;13.90;99.90;;;;;;4999092;28;20434;-69
2022/10/22 01:58:30;;;;;;;12.37;9.67;;;13.80;99.90;;;;;;4991198;28;20927;-67
2022/10/22 02:01:04;;;;;;;11.70;9.60;;;13.80;99.90;;;;;;4983190;28;20417;-69
2022/10/22 02:03:54;;;;;;;12.37;9.87;;;13.80;99.90;;;;;;5003646;28;20448;-69
2022/10/22 02:06:23;;;;;;;12.97;10.90;;;13.80;99.90;;;;;;4983776;28;20585;-69
2022/10/22 02:08:51;;;;;;;12.60;9.37;;;13.80;99.90;;;;;;4982463;28;20441;-69
2022/10/22 02:11:16;;;;;;;13.67;9.60;;;13.70;99.90;;;;;;4998336;28;20768;-69
2022/10/22 02:13:50;;;;;;;12.23;9.53;;;13.70;99.90;;;;;;5005824;28;20510;-68
2022/10/22 02:16:22;;;;;;;12.13;9.47;;;13.70;99.90;;;;;;4991020;28;20234;-68
2022/10/22 02:18:52;;;;;;;13.90;9.50;;;13.70;99.90;;;;;;5006404;28;20423;-69
2022/10/22 02:21:18;;;;;;;13.30;9.20;;;13.70;99.90;;;;;;4999203;28;20424;-69
2022/10/22 02:23:45;;;;;;;13.43;10.83;;;13.70;99.90;;;;;;4998913;28;20483;-69
2022/10/22 02:26:29;;;;;;;11.50;9.63;;;13.70;99.90;;;;;;5006948;28;20409;-69
2022/10/22 02:28:55;;;;;;;18.20;10.43;;;13.70;99.90;;;;;;5004395;28;20447;-69
2022/10/22 02:31:26;;;;;;;12.33;9.60;;;13.70;99.90;;;;;;5010637;28;20406;-68
2022/10/22 02:33:54;;;;;;;14.23;8.83;;;13.70;99.90;;;;;;4986896;28;20229;-69
2022/10/22 02:36:22;;;;;;;14.03;9.53;;;13.70;99.90;;;;;;4988896;28;20495;-69
2022/10/22 02:38:49;;;;;;;12.73;9.10;;;13.70;99.90;;;;;;5005924;28;20432;-69
2022/10/22 02:41:16;;;;;;;10.47;9.00;;;13.60;99.90;;;;;;4998875;28;20494;-69
2022/10/22 02:43:47;;;;;;;11.73;9.10;;;13.60;99.90;;;;;;4998535;28;20877;-70
2022/10/22 02:46:13;;;;;;;12.40;9.53;;;13.60;99.90;;;;;;5006925;28;20403;-68
2022/10/22 02:48:39;;;;;;;14.63;9.63;;;13.60;99.90;;;;;;4994098;28;21163;-69
2022/10/22 02:51:04;;;;;;;10.93;9.03;;;13.50;99.90;;;;;;5003928;28;20701;-69
2022/10/22 02:53:30;;;;;;;14.07;8.50;;;13.50;99.90;;;;;;4989189;28;20288;-69
2022/10/22 02:55:56;;;;;;;13.60;8.97;;;13.50;99.90;;;;;;5004175;28;20303;-68
2022/10/22 02:58:21;;;;;;;15.83;9.80;;;13.50;99.90;;;;;;4994077;28;20185;-69
2022/10/22 03:00:47;;;;;;;15.93;10.33;;;13.50;99.90;;;;;;5006023;28;20662;-68
2022/10/22 03:03:13;;;;;;;12.30;9.80;;;13.50;99.90;;;;;;4999085;28;20172;-69
2022/10/22 03:05:38;;;;;;;15.20;10.33;;;13.50;99.90;;;;;;4999251;28;20487;-69
2022/10/22 03:08:04;;;;;;;10.20;8.33;;;13.50;99.90;;;;;;4991169;28;20243;-69
2022/10/22 03:10:29;;;;;;;16.60;10.50;;;13.50;99.90;;;;;;5007311;28;20550;-69
2022/10/22 03:12:55;;;;;;;15.43;9.10;;;13.50;99.90;;;;;;4996716;28;20169;-69
2022/10/22 03:15:21;;;;;;;11.63;10.33;;;13.40;99.90;;;;;;4998390;28;20308;-69
2022/10/22 03:17:46;;;;;;;14.10;9.60;;;13.40;99.90;;;;;;4994272;28;20175;-69
2022/10/22 03:20:12;;;;;;;14.47;9.87;;;13.40;99.90;;;;;;5004342;28;20260;-69
2022/10/22 03:22:39;;;;;;;15.83;11.17;;;13.40;99.90;;;;;;4994292;28;20903;-69
2022/10/22 03:25:09;;;;;;;13.80;8.70;;;13.40;99.90;;;;;;4993923;28;20703;-70
2022/10/22 03:27:37;;;;;;;10.67;8.80;;;13.40;99.90;;;;;;4992929;28;20419;-70
2022/10/22 03:30:03;;;;;;;9.80;8.70;;;13.40;99.90;;;;;;4995760;28;20463;-68
2022/10/22 03:32:28;;;;;;;12.70;9.27;;;13.40;99.90;;;;;;5006148;28;20427;-69
2022/10/22 03:34:54;;;;;;;15.50;10.50;;;13.40;99.90;;;;;;5004647;28;20601;-69
2022/10/22 03:37:20;;;;;;;15.33;9.30;;;13.40;99.90;;;;;;4999253;28;20203;-68
2022/10/22 03:39:45;;;;;;;12.57;9.53;;;13.50;99.90;;;;;;5004759;28;20192;-69
2022/10/22 03:42:12;;;;;;;15.93;9.63;;;13.50;99.90;;;;;;5005610;28;20451;-69
2022/10/22 03:44:39;;;;;;;11.80;9.57;;;13.40;99.90;;;;;;5011919;28;20238;-68
2022/10/22 03:47:04;;;;;;;13.00;8.83;;;13.50;99.90;;;;;;5004670;28;20444;-69
2022/10/22 03:49:30;;;;;;;13.67;10.43;;;13.50;99.90;;;;;;5005409;28;20422;-69
2022/10/22 03:51:55;;;;;;;12.10;9.70;;;13.50;99.90;;;;;;5006518;28;20244;-69
2022/10/22 03:54:21;;;;;;;13.17;10.03;;;13.50;99.90;;;;;;5006717;28;20202;-69
2022/10/22 03:56:46;;;;;;;16.63;10.50;;;13.50;99.90;;;;;;4992546;28;20276;-69
2022/10/22 03:59:12;;;;;;;11.17;8.90;;;13.50;99.90;;;;;;5004318;28;20219;-69
2022/10/22 04:01:38;;;;;;;12.83;9.63;;;13.50;99.90;;;;;;5010514;28;20215;-69
2022/10/22 04:04:03;;;;;;;13.77;9.53;;;13.50;99.90;;;;;;5009078;28;20539;-70
2022/10/22 04:06:29;;;;;;;10.80;8.60;;;13.50;99.90;;;;;;5009299;28;20223;-69
2022/10/22 04:08:55;;;;;;;14.13;9.53;;;13.50;99.90;;;;;;5004780;28;20189;-69
2022/10/22 04:11:20;;;;;;;11.20;9.03;;;13.50;99.90;;;;;;4999928;28;20172;-70
2022/10/22 04:13:46;;;;;;;10.40;8.70;;;13.50;99.90;;;;;;4996875;28;20211;-69
2022/10/22 04:16:14;;;;;;;11.73;9.30;;;13.50;99.90;;;;;;5013030;28;20177;-69
2022/10/22 04:18:41;;;;;;;14.67;8.93;;;13.50;99.90;;;;;;5009577;28;20192;-70
2022/10/22 04:21:08;;;;;;;12.10;9.20;;;13.50;99.90;;;;;;5002081;28;20471;-69
2022/10/22 04:23:34;;;;;;;11.97;8.70;;;13.50;99.90;;;;;;4984195;28;20515;-69
2022/10/22 04:26:02;;;;;;;13.73;8.73;;;13.50;99.90;;;;;;5001098;28;20530;-69
2022/10/22 04:28:27;;;;;;;12.40;10.53;;;13.50;99.90;;;;;;5000733;28;20213;-70
2022/10/22 04:30:53;;;;;;;17.57;11.70;;;13.50;99.90;;;;;;5004023;28;20795;-69
2022/10/22 04:33:19;;;;;;;14.73;9.63;;;13.50;99.90;;;;;;5009594;28;20330;-69
2022/10/22 04:35:45;;;;;;;14.50;9.37;;;13.50;99.90;;;;;;5004659;28;20263;-69
2022/10/22 04:38:10;;;;;;;11.47;8.77;;;13.50;99.90;;;;;;5003791;28;20537;-70
2022/10/22 04:40:36;;;;;;;14.90;10.53;;;13.50;99.90;;;;;;5006861;28;20169;-70
2022/10/22 04:43:01;;;;;;;10.87;9.20;;;13.50;99.90;;;;;;4998903;28;20172;-67
2022/10/22 04:45:27;;;;;;;13.80;9.27;;;13.50;99.90;;;;;;5003527;28;20172;-70
2022/10/22 04:47:52;;;;;;;12.60;9.67;;;13.50;99.90;;;;;;5004033;28;20259;-69
2022/10/22 04:50:18;;;;;;;14.57;9.57;;;13.50;99.90;;;;;;5009198;28;20523;-68
2022/10/22 04:52:43;;;;;;;10.70;8.83;;;13.50;99.90;;;;;;5002058;28;20181;-69
2022/10/22 04:55:09;;;;;;;11.60;9.33;;;13.50;99.90;;;;;;5002834;28;20288;-68
2022/10/22 04:57:35;;;;;;;17.20;10.27;;;13.50;99.90;;;;;;5003687;28;20177;-69
2022/10/22 05:00:00;;;;;;;12.67;9.40;;;13.40;99.90;;;;;;5000590;28;20199;-69
2022/10/22 05:02:26;;;;;;;11.73;8.10;;;13.40;99.90;;;;;;5007736;28;20663;-69
2022/10/22 05:04:51;;;;;;;11.57;9.83;;;13.40;99.90;;;;;;4997132;28;20231;-69
2022/10/22 05:07:17;;;;;;;13.57;10.63;;;13.40;99.90;;;;;;5007933;28;20238;-69
2022/10/22 05:09:43;;;;;;;13.97;9.47;;;13.40;99.90;;;;;;4996512;28;20201;-69
2022/10/22 05:12:08;;;;;;;12.10;8.63;;;13.40;99.90;;;;;;5010750;28;20569;-69
2022/10/22 05:14:34;;;;;;;14.67;10.27;;;13.40;99.90;;;;;;5008173;28;20208;-68
2022/10/22 05:16:59;;;;;;;14.20;9.23;;;13.40;99.90;;;;;;5001848;28;20181;-72
2022/10/22 05:19:27;;;;;;;16.37;10.40;;;13.40;99.90;;;;;;5003595;28;20246;-68
2022/10/22 05:21:54;;;;;;;16.57;11.37;;;13.40;99.90;;;;;;5007614;28;20588;-68
2022/10/22 05:24:20;;;;;;;13.10;9.67;;;13.30;99.90;;;;;;5003199;28;20408;-69
2022/10/22 05:26:49;;;;;;;14.23;8.47;;;13.30;99.90;;;;;;5003583;28;20497;-69
2022/10/22 05:29:15;;;;;;;15.00;9.70;;;13.30;99.90;;;;;;5003483;28;20547;-69
2022/10/22 05:31:40;;;;;;;11.30;8.60;;;13.30;99.90;;;;;;5006167;28;20431;-69
2022/10/22 05:34:06;;;;;;;17.07;10.93;;;13.20;99.90;;;;;;5002170;28;20215;-69
2022/10/22 05:36:31;;;;;;;14.70;10.13;;;13.20;99.90;;;;;;4998515;28;20231;-69
2022/10/22 05:38:57;;;;;;;13.13;9.50;;;13.20;99.90;;;;;;4999347;28;20750;-69
2022/10/22 05:41:24;;;;;;;10.40;8.80;;;13.20;99.90;;;;;;5003009;28;20217;-69
2022/10/22 05:43:52;;;;;;;12.43;9.10;;;13.20;99.90;;;;;;5007886;28;20174;-69
2022/10/22 05:46:21;;;;;;;10.93;8.90;;;13.20;99.90;;;;;;5000722;28;20493;-69
2022/10/22 05:49:02;;;;;;;13.00;9.20;;;13.20;99.90;;;;;;5004279;28;20769;-70
2022/10/22 05:51:31;;;;;;;15.33;9.53;;;13.20;99.90;;;;;;4994087;28;20889;-69
2022/10/22 05:54:00;;;;;;;15.80;9.43;;;13.20;99.90;;;;;;5008589;28;20447;-68
2022/10/22 05:56:27;;;;;;;13.00;8.47;;;13.20;99.90;;;;;;5002619;28;21011;-69
2022/10/22 05:58:53;;;;;;;10.93;8.50;;;13.20;99.90;;;;;;4999983;28;20424;-68
2022/10/22 06:01:24;;;;;;;14.13;10.03;;;13.10;99.90;;;;;;5005868;28;20795;-70
2022/10/22 06:03:53;;;;;;;15.53;11.20;;;13.10;99.90;;;;;;5001305;28;20240;-69
2022/10/22 06:06:38;;;;;;;14.73;10.57;;;13.10;99.90;;;;;;5001552;28;20867;-69
2022/10/22 06:09:25;;;;;;;14.80;9.00;;;13.10;99.90;;;;;;5001905;28;20457;-70
2022/10/22 06:11:51;;;;;;;15.13;10.10;;;13.10;99.90;;;;;;5007236;28;20489;-70
2022/10/22 06:14:19;;;;;;;15.50;10.90;;;13.10;99.90;;;;;;4997256;28;20463;-69
2022/10/22 06:16:44;;;;;;;16.87;10.73;;;13.10;99.90;;;;;;4999364;28;20192;-69
2022/10/22 06:19:16;;;;;;;12.70;10.23;;;13.10;99.90;;;;;;5004832;28;20456;-70
2022/10/22 06:21:42;;;;;;;14.03;9.67;;;13.10;99.90;;;;;;5003084;28;20161;-69
2022/10/22 06:24:09;;;;;;;16.20;10.60;;;13.10;99.90;;;;;;5005820;28;20466;-69
2022/10/22 06:26:34;;;;;;;15.63;10.83;;;13.20;99.90;;;;;;5000123;28;20443;-69
2022/10/22 06:29:00;;;;;;;17.87;10.80;;;13.20;99.90;;;;;;4990746;28;20990;-70
2022/10/22 06:31:27;;;;;;;17.07;11.30;;;13.20;99.90;;;;;;4995063;28;20195;-70
2022/10/22 06:33:53;;;;;;;13.30;10.53;;;13.30;99.90;;;;;;4993969;28;20211;-70
2022/10/22 06:36:20;;;;;;;12.00;9.60;;;13.30;99.90;;;;;;4996328;28;20941;-70
2022/10/22 06:38:46;;;;;;;15.23;11.27;;;13.40;99.90;;;;;;5005518;28;20446;-69
2022/10/22 06:41:14;;;;;;;11.93;9.83;;;13.40;99.90;;;;;;4999697;28;20432;-70
2022/10/22 06:43:44;;;;;;;13.10;9.47;;;13.40;99.90;;;;;;5007911;28;20518;-71
2022/10/22 06:46:10;;;;;;;14.50;10.70;;;13.50;99.90;;;;;;4997118;28;20551;-70
2022/10/22 06:48:38;;;;;;;15.60;10.07;;;13.50;99.90;;;;;;5003899;28;20423;-69
2022/10/22 06:51:14;;;;;;;16.37;10.23;;;13.50;99.90;;;;;;4996328;28;20451;-69
2022/10/22 06:53:40;;;;;;;12.57;9.97;;;13.50;99.90;;;;;;4996885;28;20480;-69
2022/10/22 06:56:07;;;;;;;13.73;9.20;;;13.60;99.90;;;;;;4998760;28;20436;-70
2022/10/22 06:58:33;;;;;;;20.30;11.43;;;13.60;99.90;;;;;;5005192;28;20969;-69
2022/10/22 07:01:08;;;;;;;15.10;10.03;;;13.70;99.90;;;;;;4999709;28;20423;-69
2022/10/22 07:03:34;;;;;;;13.23;10.00;;;13.70;99.90;;;;;;5000483;28;20553;-70
2022/10/22 07:06:06;;;;;;;12.57;9.77;;;13.60;99.90;;;;;;4996198;28;20579;-69
2022/10/22 07:08:32;;;;;;;12.97;9.50;;;13.70;99.90;;;;;;4999033;28;20439;-69
2022/10/22 07:11:15;;;;;;;12.90;10.63;;;13.80;99.90;;;;;;5014678;28;20434;-69
2022/10/22 07:13:42;;;;;;;14.87;11.60;;;13.70;99.90;;;;;;5010338;28;20458;-68
2022/10/22 07:16:08;;;;;;;14.50;8.67;;;13.80;99.90;;;;;;4999195;28;20514;-69
2022/10/22 07:18:35;;;;;;;13.80;9.53;;;13.90;99.90;;;;;;5011932;28;20432;-68
2022/10/22 07:21:00;;;;;;;14.43;9.83;;;13.80;99.90;;;;;;4994974;28;20426;-69
2022/10/22 07:23:27;;;;;;;13.33;10.73;;;13.90;99.90;;;;;;4997611;28;20489;-70
2022/10/22 07:25:53;;;;;;;14.17;8.77;;;13.90;99.90;;;;;;4996488;28;20181;-69
2022/10/22 07:28:18;;;;;;;10.90;9.60;;;13.90;99.90;;;;;;5008282;28;21025;-69
2022/10/22 07:30:44;;;;;;;12.27;9.10;;;14.00;99.90;;;;;;5029950;23;20717;-67
2022/10/22 07:33:10;;;;;;;13.70;10.90;;;14.10;99.90;;;;;;5005053;28;20639;-70
2022/10/22 07:35:38;;;;;;;17.10;10.93;;;14.20;99.90;;;;;;4995498;28;20179;-68
2022/10/22 07:38:05;;;;;;;16.17;11.10;;;14.20;99.90;;;;;;4993528;28;20785;-68
2022/10/22 07:40:31;;;;;;;13.40;9.63;;;14.20;99.90;;;;;;5009443;28;20836;-68
2022/10/22 07:42:56;;;;;;;12.23;9.40;;;14.20;99.90;;;;;;5006287;28;20416;-68
2022/10/22 07:45:22;;;;;;;10.83;9.13;;;14.30;99.90;;;;;;5000660;28;20297;-68
2022/10/22 07:47:47;;;;;;;15.93;11.10;;;14.30;99.90;;;;;;5007275;28;20191;-68
2022/10/22 07:50:13;;;;;;;13.63;9.87;;;14.50;99.90;;;;;;5014257;28;20196;-68
2022/10/22 07:52:39;;;;;;;11.83;9.27;;;14.80;99.90;;;;;;5011756;28;20165;-68
2022/10/22 07:55:05;;;;;;;11.80;8.97;;;14.90;99.90;;;;;;5013705;28;20201;-69
2022/10/22 07:57:30;;;;;;;11.63;8.40;;;14.80;99.90;;;;;;5014200;28;20172;-68
2022/10/22 07:59:57;;;;;;;9.67;8.13;;;14.90;99.90;;;;;;5007193;28;21066;-67
2022/10/22 08:02:25;;;;;;;10.20;8.13;;;14.90;99.90;;;;;;5010999;28;20632;-68
2022/10/22 08:04:51;;;;;;;11.97;10.30;;;14.90;99.90;;;;;;4985435;28;20416;-68
2022/10/22 08:07:17;;;;;;;11.00;8.47;;;14.90;99.90;;;;;;5014166;28;20770;-68
2022/10/22 08:09:43;;;;;;;8.47;7.13;;;14.90;99.90;;;;;;5013857;28;20631;-69
2022/10/22 08:12:08;;;;;;;8.90;8.00;;;14.80;99.90;;;;;;5003168;28;20532;-68
2022/10/22 08:14:34;;;;;;;11.27;8.87;;;14.90;99.90;;;;;;5012798;28;20485;-68
2022/10/22 08:17:00;;;;;;;9.47;7.80;;;14.80;99.90;;;;;;5013350;28;20224;-68
2022/10/22 08:19:27;;;;;;;10.47;7.30;;;14.90;99.90;;;;;;5011828;28;20628;-68
2022/10/22 08:21:53;;;;;;;11.40;7.37;;;14.90;99.90;;;;;;5013453;28;20329;-68
2022/10/22 08:24:18;;;;;;;8.23;7.40;;;14.90;99.90;;;;;;5013383;28;20408;-69
2022/10/22 08:26:44;;;;;;;8.60;7.70;;;15.00;99.90;;;;;;5013172;28;20178;-68
2022/10/22 08:29:09;;;;;;;9.60;8.10;;;15.00;99.90;;;;;;5006357;28;20287;-69
2022/10/22 08:31:35;;;;;;;8.10;7.30;;;15.00;99.90;;;;;;5013516;28;20579;-68
2022/10/22 08:34:00;;;;;;;11.40;7.90;;;15.00;99.90;;;;;;5013521;28;20194;-69
2022/10/22 08:36:26;;;;;;;10.40;7.03;;;15.20;99.90;;;;;;5012193;28;20178;-70
2022/10/22 08:38:51;;;;;;;9.60;8.60;;;15.10;99.90;;;;;;5013530;28;20254;-68
2022/10/22 08:41:19;;;;;;;9.90;8.90;;;15.10;99.90;;;;;;5013015;28;20574;-69
2022/10/22 08:44:00;;;;;;;9.37;7.87;;;15.10;99.90;;;;;;5005777;28;20175;-68
2022/10/22 08:47:00;;;;;;;14.23;9.30;;;15.00;99.90;;;;;;5012905;28;20825;-69
2022/10/22 08:49:31;;;;;;;11.77;9.00;;;15.10;99.90;;;;;;5012820;28;20417;-69
2022/10/22 08:51:58;;;;;;;10.97;9.13;;;15.00;99.90;;;;;;5012935;28;20422;-68
2022/10/22 08:54:45;;;;;;;11.50;8.17;;;15.10;99.90;;;;;;5012831;28;21008;-68
2022/10/22 08:57:41;;;;;;;9.30;8.00;;;15.20;99.90;;;;;;5003748;28;20479;-68
2022/10/22 09:00:12;;;;;;;14.47;9.57;;;15.10;99.90;;;;;;5004189;28;20431;-68
2022/10/22 09:03:08;;;;;;;12.37;9.80;;;15.10;99.90;;;;;;5012882;28;20430;-68
2022/10/22 09:05:51;;;;;;;13.63;7.87;;;15.20;99.90;;;;;;5010450;28;20416;-68
2022/10/22 09:08:19;;;;;;;9.67;7.20;;;15.20;99.90;;;;;;5012739;28;20843;-68
2022/10/22 09:11:10;;;;;;;12.53;7.67;;;15.20;99.90;;;;;;5012599;28;20427;-69
2022/10/22 09:13:36;;;;;;;9.80;8.03;;;15.20;99.90;;;;;;5004462;28;20468;-69
2022/10/22 09:16:15;;;;;;;13.00;9.70;;;15.20;99.90;;;;;;5012419;28;20811;-69
2022/10/22 09:19:01;;;;;;;10.37;7.87;;;15.20;99.90;;;;;;4980463;28;20506;-68
2022/10/22 09:21:55;;;;;;;9.50;7.13;;;15.30;99.90;;;;;;5012442;28;20426;-69
2022/10/22 09:24:44;;;;;;;8.57;7.67;;;15.30;99.90;;;;;;5010417;28;20421;-69
2022/10/22 09:27:13;;;;;;;9.13;8.20;;;15.50;99.90;;;;;;4992801;28;20429;-68
2022/10/22 09:29:39;;;;;;;10.33;9.30;;;15.60;99.90;;;;;;5005399;28;20433;-68
2022/10/22 09:32:04;;;;;;;9.23;8.13;;;15.70;99.90;;;;;;4992111;28;20523;-67
2022/10/22 09:34:31;;;;;;;8.40;7.43;;;15.60;99.90;;;;;;5003319;28;20605;-68
2022/10/22 09:37:08;;;;;;;11.40;9.00;;;15.80;99.90;;;;;;4995006;28;20179;-68
2022/10/22 09:39:46;;;;;;;9.20;7.63;;;15.90;99.90;;;;;;5001773;28;20435;-69
2022/10/22 09:42:16;;;;;;;8.47;7.57;;;15.90;99.90;;;;;;5000047;28;20415;-68
2022/10/22 09:44:42;;;;;;;8.70;7.30;;;16.00;99.90;;;;;;4980598;28;20908;-68
2022/10/22 09:47:35;;;;;;;11.27;8.47;;;16.10;99.90;;;;;;4999234;28;20436;-68
2022/10/22 09:50:44;;;;;;;8.77;7.10;;;16.20;99.90;;;;;;5002222;28;20497;-67
2022/10/22 09:53:19;;;;;;;9.20;8.30;;;16.00;99.90;;;;;;4993046;28;20450;-69
2022/10/22 09:55:50;;;;;;;11.33;8.87;;;16.30;99.90;;;;;;5012096;28;20410;-68
2022/10/22 09:58:16;;;;;;;8.90;7.50;;;16.20;99.90;;;;;;5011646;28;20453;-70
2022/10/22 10:00:50;;;;;;;14.73;7.73;;;16.40;99.90;;;;;;5002182;28;20438;-70
2022/10/22 10:03:22;;;;;;;8.63;7.60;;;16.40;99.90;;;;;;4999279;28;20287;-70
2022/10/22 10:05:53;;;;;;;8.80;7.90;;;16.60;99.90;;;;;;5004038;28;20763;-69
2022/10/22 10:08:19;;;;;;;13.47;9.70;;;16.60;99.90;;;;;;5005795;28;20456;-69
2022/10/22 10:11:11;;;;;;;8.97;7.63;;;16.70;99.90;;;;;;5012287;28;20446;-69
2022/10/22 10:14:09;;;;;;;8.30;7.40;;;16.70;99.90;;;;;;5002417;28;20290;-69
2022/10/22 10:17:02;;;;;;;9.53;6.97;;;16.50;99.90;;;;;;5011265;28;20427;-70
2022/10/22 10:19:45;;;;;;;9.70;7.70;;;16.40;99.90;;;;;;5005070;28;20421;-70
2022/10/22 10:22:41;;;;;;;9.80;7.27;;;16.30;99.90;;;;;;5009213;28;20621;-68
2022/10/22 10:25:25;;;;;;;11.77;7.57;;;16.30;99.90;;;;;;4982703;28;20529;-68
2022/10/22 10:28:13;;;;;;;13.70;8.50;;;16.30;99.90;;;;;;5004610;28;20508;-69
2022/10/22 10:30:53;;;;;;;12.60;8.23;;;16.40;99.90;;;;;;4999306;28;20460;-69
2022/10/22 10:33:19;;;;;;;9.93;8.20;;;16.30;99.90;;;;;;5010239;28;20474;-69
2022/10/22 10:36:05;;;;;;;10.27;8.03;;;16.40;99.90;;;;;;4998804;28;20859;-68
2022/10/22 10:38:39;;;;;;;10.60;8.57;;;16.20;99.90;;;;;;4994376;28;20627;-66
2022/10/22 10:41:28;;;;;;;9.37;7.90;;;16.20;99.90;;;;;;5014080;28;20817;-72
2022/10/22 10:44:15;;;;;;;10.47;7.90;;;16.30;99.90;;;;;;4995822;28;20450;-69
2022/10/22 10:47:07;;;;;;;9.73;8.30;;;16.50;99.90;;;;;;5003466;28;20433;-69
2022/10/22 10:49:34;;;;;;;9.57;8.00;;;16.40;99.90;;;;;;5020063;28;20431;-69
2022/10/22 10:52:25;;;;;;;10.40;7.57;;;16.40;99.90;;;;;;5018842;28;20429;-69
2022/10/22 10:55:13;;;;;;;12.20;9.13;;;16.50;99.90;;;;;;4998939;28;20451;-69
2022/10/22 10:57:46;;;;;;;9.00;8.10;;;16.40;99.90;;;;;;5012434;28;20428;-69
2022/10/22 11:00:19;;;;;;;10.70;7.53;;;16.50;99.90;;;;;;4997816;28;20439;-69
2022/10/22 11:03:00;;;;;;;10.67;9.57;;;16.70;99.90;;;;;;4995229;28;20435;-68
2022/10/22 11:05:29;;;;;;;10.83;9.43;;;16.80;99.90;;;;;;5000172;28;20407;-67
2022/10/22 11:08:18;;;;;;;9.40;7.97;;;17.10;99.90;;;;;;5008361;28;20903;-67
2022/10/22 11:10:49;;;;;;;13.93;9.93;;;17.20;99.90;;;;;;5005159;28;20424;-68
2022/10/22 11:13:29;;;;;;;9.20;7.90;;;17.50;99.90;;;;;;5020374;28;20472;-67
2022/10/22 11:16:10;;;;;;;11.63;7.63;;;17.60;99.90;;;;;;5000362;28;20417;-67
2022/10/22 11:19:05;;;;;;;10.10;7.90;;;17.70;99.90;;;;;;5006092;28;20782;-68
2022/10/22 11:21:44;;;;;;;11.43;8.10;;;17.30;99.90;;;;;;5005727;28;20445;-68
2022/10/22 11:24:34;;;;;;;8.50;7.70;;;17.20;99.90;;;;;;5006203;28;20424;-67
2022/10/22 11:27:16;;;;;;;11.73;8.97;;;17.30;99.90;;;;;;4989821;28;20448;-68
2022/10/22 11:29:48;;;;;;;11.00;9.60;;;17.30;99.90;;;;;;5013060;28;20428;-68
2022/10/22 11:32:18;;;;;;;11.13;9.63;;;17.40;99.90;;;;;;5015857;28;20941;-68
2022/10/22 11:34:49;;;;;;;16.00;10.77;;;17.40;99.90;;;;;;4998844;28;20975;-69
2022/10/22 11:37:16;;;;;;;13.70;11.00;;;17.20;99.90;;;;;;5003850;28;20425;-68
2022/10/22 11:39:54;;;;;;;11.67;9.63;;;17.30;99.90;;;;;;4999572;28;20865;-68
2022/10/22 11:42:30;;;;;;;15.27;9.80;;;17.60;99.90;;;;;;5004470;28;20444;-67
2022/10/22 11:45:00;;;;;;;13.17;10.63;;;17.70;99.90;;;;;;4993709;28;20430;-68
2022/10/22 11:48:06;;;;;;;12.43;10.30;;;17.80;99.90;;;;;;5000900;28;20951;-68
2022/10/22 11:50:46;;;;;;;11.63;9.10;;;17.80;99.90;;;;;;5001878;28;20566;-68
2022/10/22 11:53:12;;;;;;;11.20;9.77;;;17.70;99.90;;;;;;5013010;28;20428;-67
2022/10/22 11:55:54;;;;;;;11.07;9.37;;;17.80;99.90;;;;;;5006942;28;20418;-68
2022/10/22 11:58:45;;;;;;;13.53;10.37;;;17.80;99.90;;;;;;5010578;28;20178;-68
2022/10/22 12:01:10;;;;;;;10.50;7.80;;;17.80;99.90;;;;;;4996029;28;20531;-68
2022/10/22 12:03:43;;;;;;;12.10;8.03;;;17.70;99.90;;;;;;4998558;28;20991;-68
2022/10/22 12:06:11;;;;;;;11.70;9.63;;;17.80;99.90;;;;;;5000280;28;20177;-69
2022/10/22 12:08:53;;;;;;;12.33;9.50;;;17.90;99.90;;;;;;4997985;28;20424;-69
2022/10/22 12:11:24;;;;;;;9.83;8.67;;;18.00;99.90;;;;;;5004242;28;20930;-69
2022/10/22 12:14:08;;;;;;;10.17;9.17;;;18.10;99.90;;;;;;5002013;28;20462;-69
2022/10/22 12:16:39;;;;;;;11.10;9.03;;;18.40;99.90;;;;;;5013715;28;20419;-69
2022/10/22 12:19:15;;;;;;;7.93;6.77;;;18.30;99.90;;;;;;5004136;28;20960;-69
2022/10/22 12:21:43;;;;;;;9.97;8.23;;;18.40;99.90;;;;;;5000822;28;20413;-69
2022/10/22 12:24:14;;;;;;;11.00;7.43;;;18.70;99.90;;;;;;5001736;28;20438;-69
2022/10/22 12:26:39;;;;;;;9.17;7.27;;;18.50;99.90;;;;;;4998702;28;20428;-69
2022/10/22 12:29:10;;;;;;;11.07;6.77;;;18.50;99.90;;;;;;5003700;28;20437;-69
2022/10/22 12:31:39;;;;;;;7.77;5.93;;;18.50;99.90;;;;;;5015302;28;20191;-74
2022/10/22 12:34:04;;;;;;;6.73;6.03;;;18.50;99.90;;;;;;5011808;28;20449;-68
2022/10/22 12:36:34;;;;;;;9.43;5.43;;;18.40;99.90;;;;;;5007689;28;20434;-70
2022/10/22 12:39:09;;;;;;;8.40;6.30;;;18.20;99.90;;;;;;4996282;28;20169;-69
2022/10/22 12:41:37;;;;;;;6.97;5.30;;;18.20;99.90;;;;;;5006626;28;20407;-68
2022/10/22 12:44:04;;;;;;;6.40;5.67;;;18.50;99.90;;;;;;5006206;28;20412;-68
2022/10/22 12:46:32;;;;;;;8.83;5.20;;;18.80;99.90;;;;;;5004995;28;20426;-71
2022/10/22 12:49:06;;;;;;;6.63;5.07;;;18.90;99.90;;;;;;5001791;28;20815;-68
2022/10/22 12:51:32;;;;;;;5.30;4.80;;;18.80;99.90;;;;;;5007676;28;20436;-69
2022/10/22 12:54:17;;;;;;;7.33;4.90;;;18.60;99.90;;;;;;5016530;28;20966;-69
2022/10/22 12:56:45;;;;;;;6.43;3.73;;;18.80;99.90;;;;;;4984253;28;20174;-68